createdAt,value
2017-11-29T00:00:40.210Z,13.67
2017-11-29T00:03:07.630Z,12.57
2017-11-29T00:05:35.070Z,14.50
2017-11-29T00:08:03.274Z,14.33
2017-11-29T00:10:30.714Z,15.27
2017-11-29T00:12:58.209Z,13.43
2017-11-29T00:15:25.641Z,13.93
2017-11-29T00:17:53.070Z,14.63
2017-11-29T00:20:21.293Z,12.90
2017-11-29T00:22:48.737Z,15.60
2017-11-29T00:25:16.166Z,14.97
2017-11-29T00:27:44.373Z,15.17
2017-11-29T00:30:11.822Z,15.57
2017-11-29T00:32:39.298Z,14.43
2017-11-29T00:35:06.729Z,15.37
2017-11-29T00:37:34.216Z,15.47
2017-11-29T00:40:01.641Z,14.97
2017-11-29T00:42:29.062Z,16.13
2017-11-29T00:44:56.501Z,14.90
2017-11-29T00:47:24.035Z,16.57
2017-11-29T00:49:51.490Z,16.03
2017-11-29T00:52:18.940Z,16.63
2017-11-29T00:54:46.401Z,16.43
2017-11-29T00:57:13.838Z,15.70
2017-11-29T00:59:41.277Z,16.10
2017-11-29T01:02:09.470Z,15.13
2017-11-29T01:04:36.898Z,14.77
2017-11-29T01:07:05.126Z,16.27
2017-11-29T01:09:32.553Z,15.80
2017-11-29T01:12:00.040Z,17.43
2017-11-29T01:14:27.469Z,15.93
2017-11-29T01:16:54.960Z,15.93
2017-11-29T01:19:22.414Z,14.97
2017-11-29T01:21:49.858Z,15.67
2017-11-29T01:24:17.322Z,16.10
2017-11-29T01:26:44.754Z,17.00
2017-11-29T01:29:12.238Z,15.43
2017-11-29T01:31:39.670Z,16.33
2017-11-29T01:34:07.097Z,16.23
2017-11-29T01:36:35.297Z,16.37
2017-11-29T01:39:02.726Z,17.30
2017-11-29T01:41:30.242Z,17.27
2017-11-29T01:43:57.738Z,15.57
2017-11-29T01:46:25.267Z,17.53
2017-11-29T01:48:52.689Z,16.07
2017-11-29T01:51:20.118Z,17.50
2017-11-29T01:53:48.317Z,17.93
2017-11-29T01:56:15.822Z,17.00
2017-11-29T01:58:43.253Z,17.07
2017-11-29T02:01:10.683Z,17.30
2017-11-29T02:03:38.891Z,18.00
2017-11-29T02:06:18.434Z,18.73
2017-11-29T02:08:45.867Z,18.57
2017-11-29T02:11:13.347Z,16.80
2017-11-29T02:13:40.786Z,15.83
2017-11-29T02:16:08.218Z,17.40
2017-11-29T02:18:36.410Z,18.83
2017-11-29T02:21:03.859Z,15.80
2017-11-29T02:23:32.064Z,16.83
2017-11-29T02:25:59.526Z,17.47
2017-11-29T02:28:26.954Z,18.60
2017-11-29T02:30:54.437Z,16.07
2017-11-29T02:33:21.902Z,18.57
2017-11-29T02:35:49.352Z,17.87
2017-11-29T02:38:16.782Z,17.07
2017-11-29T02:40:56.045Z,18.43
2017-11-29T02:43:23.477Z,18.37
2017-11-29T02:45:50.898Z,18.27
2017-11-29T02:48:18.410Z,17.43
2017-11-29T02:50:45.846Z,18.97
2017-11-29T02:53:13.274Z,18.57
2017-11-29T02:55:41.498Z,18.23
2017-11-29T02:58:08.956Z,17.53
2017-11-29T03:00:37.276Z,18.50
2017-11-29T03:03:04.674Z,17.53
2017-11-29T03:05:32.146Z,18.43
2017-11-29T03:07:59.602Z,17.13
2017-11-29T03:10:27.043Z,18.33
2017-11-29T03:12:54.488Z,18.60
2017-11-29T03:15:22.686Z,18.33
2017-11-29T03:17:50.130Z,19.10
2017-11-29T03:20:17.550Z,17.47
2017-11-29T03:22:45.785Z,18.23
2017-11-29T03:25:13.211Z,18.43
2017-11-29T03:27:40.646Z,19.80
2017-11-29T03:30:08.849Z,19.97
2017-11-29T03:32:36.279Z,19.00
2017-11-29T03:35:04.502Z,20.03
2017-11-29T03:37:31.938Z,19.80
2017-11-29T03:39:59.386Z,19.43
2017-11-29T03:42:26.874Z,21.47
2017-11-29T03:44:54.309Z,19.37
2017-11-29T03:47:21.800Z,20.97
2017-11-29T03:49:49.225Z,22.40
2017-11-29T03:52:16.658Z,19.73
2017-11-29T03:54:44.871Z,20.63
2017-11-29T03:57:12.306Z,19.77
2017-11-29T03:59:39.802Z,20.97
2017-11-29T04:02:07.243Z,19.90
2017-11-29T04:04:34.707Z,19.40
2017-11-29T04:07:02.136Z,19.80
2017-11-29T04:09:29.625Z,20.10
2017-11-29T04:11:57.062Z,18.97
2017-11-29T04:14:24.488Z,21.63
2017-11-29T04:16:52.700Z,21.57
2017-11-29T04:19:20.175Z,21.23
2017-11-29T04:21:47.625Z,20.40
2017-11-29T04:24:15.100Z,23.27
2017-11-29T04:26:42.511Z,22.37
2017-11-29T04:29:09.993Z,21.93
2017-11-29T04:31:37.445Z,20.63
2017-11-29T04:34:04.902Z,20.93
2017-11-29T04:36:32.310Z,22.47
2017-11-29T04:38:59.746Z,23.57
2017-11-29T04:41:27.275Z,22.63
2017-11-29T04:43:54.714Z,20.50
2017-11-29T04:46:22.170Z,20.73
2017-11-29T04:48:49.657Z,21.10
2017-11-29T04:51:17.106Z,24.37
2017-11-29T04:53:44.525Z,21.23
2017-11-29T04:56:12.718Z,21.20
2017-11-29T04:58:40.141Z,23.17
2017-11-29T05:01:08.348Z,23.53
2017-11-29T05:03:35.794Z,23.57
2017-11-29T05:06:03.219Z,24.37
2017-11-29T05:08:31.427Z,24.20
2017-11-29T05:10:58.910Z,24.13
2017-11-29T05:13:26.370Z,23.23
2017-11-29T05:15:53.814Z,24.83
2017-11-29T05:18:21.242Z,23.13
2017-11-29T05:20:49.440Z,26.87
2017-11-29T05:23:16.908Z,26.07
2017-11-29T05:25:44.374Z,22.57
2017-11-29T05:28:11.830Z,24.83
2017-11-29T05:30:39.274Z,24.47
2017-11-29T05:33:06.699Z,24.87
2017-11-29T05:35:34.918Z,24.37
2017-11-29T05:38:02.374Z,26.27
2017-11-29T05:40:29.802Z,28.27
2017-11-29T05:42:57.262Z,27.23
2017-11-29T05:45:25.450Z,27.80
2017-11-29T05:47:52.875Z,27.40
2017-11-29T05:50:21.095Z,29.90
2017-11-29T05:52:48.543Z,30.37
2017-11-29T05:55:16.010Z,31.00
2017-11-29T05:57:43.479Z,32.00
2017-11-29T06:00:11.026Z,30.80
2017-11-29T06:02:38.454Z,30.97
2017-11-29T06:05:05.881Z,33.30
2017-11-29T06:07:33.334Z,34.10
2017-11-29T06:10:00.763Z,33.27
2017-11-29T06:12:28.199Z,33.40
2017-11-29T06:14:55.686Z,33.60
2017-11-29T06:17:23.118Z,33.47
2017-11-29T06:19:50.551Z,34.87
2017-11-29T06:22:17.995Z,33.57
2017-11-29T06:24:46.186Z,33.03
2017-11-29T06:27:13.670Z,34.67
2017-11-29T06:29:41.116Z,32.43
2017-11-29T06:32:08.552Z,34.73
2017-11-29T06:34:36.749Z,33.17
2017-11-29T06:37:04.210Z,32.80
2017-11-29T06:39:31.702Z,35.23
2017-11-29T06:41:59.125Z,33.97
2017-11-29T06:44:26.577Z,35.50
2017-11-29T06:46:54.033Z,36.13
2017-11-29T06:49:21.498Z,37.83
2017-11-29T06:51:48.950Z,37.43
2017-11-29T06:54:16.362Z,34.40
2017-11-29T06:56:44.562Z,35.63
2017-11-29T06:59:12.051Z,34.50
2017-11-29T07:01:39.474Z,35.37
2017-11-29T07:04:06.964Z,33.23
2017-11-29T07:06:34.433Z,34.83
2017-11-29T07:09:01.878Z,37.40
2017-11-29T07:11:29.309Z,36.63
2017-11-29T07:13:56.746Z,36.37
2017-11-29T07:16:24.963Z,37.67
2017-11-29T07:18:52.396Z,37.17
2017-11-29T07:21:19.822Z,35.90
2017-11-29T07:23:48.018Z,37.37
2017-11-29T07:26:15.530Z,38.67
2017-11-29T07:28:42.978Z,40.67
2017-11-29T07:31:10.414Z,39.47
2017-11-29T07:33:37.846Z,39.50
2017-11-29T07:36:05.281Z,39.43
2017-11-29T07:38:33.482Z,40.23
2017-11-29T07:41:00.973Z,41.40
2017-11-29T07:43:28.530Z,40.93
2017-11-29T07:45:55.993Z,40.27
2017-11-29T07:48:23.420Z,38.90
2017-11-29T07:50:50.905Z,40.20
2017-11-29T07:53:18.363Z,38.93
2017-11-29T07:55:45.830Z,40.17
2017-11-29T07:58:13.280Z,38.30
2017-11-29T08:00:40.730Z,39.07
2017-11-29T08:03:08.184Z,35.97
2017-11-29T08:05:35.616Z,37.07
2017-11-29T08:08:03.051Z,35.30
2017-11-29T08:10:30.662Z,36.53
2017-11-29T08:12:58.119Z,33.87
2017-11-29T08:15:25.570Z,33.30
2017-11-29T08:17:53.026Z,36.03
2017-11-29T08:20:20.460Z,32.27
2017-11-29T08:22:47.884Z,33.87
2017-11-29T08:25:16.081Z,32.37
2017-11-29T08:27:43.572Z,31.03
2017-11-29T08:30:11.038Z,31.20
2017-11-29T08:32:38.489Z,32.20
2017-11-29T08:35:05.921Z,32.13
2017-11-29T08:37:33.342Z,31.37
2017-11-29T08:40:00.775Z,30.40
2017-11-29T08:42:28.226Z,30.10
2017-11-29T08:44:55.662Z,30.70
2017-11-29T08:47:23.082Z,29.83
2017-11-29T08:49:51.296Z,31.73
2017-11-29T08:52:18.721Z,29.77
2017-11-29T08:54:46.923Z,29.73
2017-11-29T08:57:14.366Z,29.30
2017-11-29T08:59:41.791Z,32.90
2017-11-29T09:02:09.218Z,31.03
2017-11-29T09:04:36.762Z,33.43
2017-11-29T09:07:04.199Z,32.60
2017-11-29T09:09:31.678Z,31.40
2017-11-29T09:11:59.122Z,31.07
2017-11-29T09:14:26.587Z,33.87
2017-11-29T09:16:54.763Z,32.70
2017-11-29T09:19:22.208Z,36.07
2017-11-29T09:21:49.641Z,35.10
2017-11-29T09:24:17.869Z,37.90
2017-11-29T09:26:45.422Z,38.30
2017-11-29T09:29:12.850Z,38.07
2017-11-29T09:31:40.295Z,37.93
2017-11-29T09:34:07.729Z,41.23
2017-11-29T09:36:35.967Z,38.03
2017-11-29T09:39:03.390Z,37.97
2017-11-29T09:41:30.875Z,38.67
2017-11-29T09:43:58.302Z,39.27
2017-11-29T09:46:25.811Z,38.43
2017-11-29T09:48:53.250Z,41.97
2017-11-29T09:51:20.740Z,40.27
2017-11-29T09:53:48.166Z,38.80
2017-11-29T09:56:15.725Z,38.93
2017-11-29T09:58:43.170Z,38.40
2017-11-29T10:01:10.599Z,39.87
2017-11-29T10:03:38.099Z,34.07
2017-11-29T10:06:05.562Z,39.43
2017-11-29T10:08:32.993Z,39.17
2017-11-29T10:11:00.434Z,39.57
2017-11-29T10:13:27.867Z,40.57
2017-11-29T10:15:56.060Z,39.60
2017-11-29T10:18:23.543Z,40.27
2017-11-29T10:20:50.977Z,39.40
2017-11-29T10:23:18.401Z,38.87
2017-11-29T10:25:45.845Z,39.53
2017-11-29T10:28:13.367Z,39.33
2017-11-29T10:30:40.826Z,39.37
2017-11-29T10:33:08.274Z,38.87
2017-11-29T10:35:35.688Z,40.33
2017-11-29T10:38:03.122Z,39.40
2017-11-29T10:40:30.554Z,41.23
2017-11-29T10:42:58.006Z,36.90
2017-11-29T10:45:25.474Z,38.57
2017-11-29T10:47:53.028Z,39.40
2017-11-29T10:50:20.491Z,41.90
2017-11-29T10:52:47.942Z,40.90
2017-11-29T10:55:15.386Z,38.20
2017-11-29T10:57:42.805Z,40.50
2017-11-29T11:00:11.030Z,38.30
2017-11-29T11:02:38.469Z,39.97
2017-11-29T11:05:05.893Z,43.73
2017-11-29T11:07:34.134Z,43.57
2017-11-29T11:10:01.570Z,42.60
2017-11-29T11:12:29.004Z,43.23
2017-11-29T11:14:56.493Z,38.37
2017-11-29T11:17:23.945Z,41.93
2017-11-29T11:19:51.403Z,44.77
2017-11-29T11:22:18.817Z,43.93
2017-11-29T11:24:47.029Z,46.10
2017-11-29T11:27:14.459Z,47.07
2017-11-29T11:29:42.655Z,47.30
2017-11-29T11:32:10.119Z,49.03
2017-11-29T11:34:37.594Z,49.17
2017-11-29T11:37:05.042Z,45.10
2017-11-29T11:39:32.515Z,45.93
2017-11-29T11:41:59.948Z,48.90
2017-11-29T11:44:27.370Z,47.03
2017-11-29T11:46:55.605Z,43.93
2017-11-29T11:49:23.034Z,41.53
2017-11-29T11:51:50.465Z,41.27
2017-11-29T11:54:18.670Z,43.60
2017-11-29T11:56:46.098Z,43.73
2017-11-29T11:59:13.595Z,47.50
2017-11-29T12:01:41.060Z,42.87
2017-11-29T12:04:08.478Z,44.90
2017-11-29T12:06:35.914Z,42.90
2017-11-29T12:09:04.125Z,42.93
2017-11-29T12:11:31.590Z,41.57
2017-11-29T12:13:59.050Z,44.43
2017-11-29T12:16:26.510Z,40.83
2017-11-29T12:18:53.939Z,45.20
2017-11-29T12:21:21.430Z,46.60
2017-11-29T12:23:48.981Z,41.80
2017-11-29T12:26:16.461Z,45.83
2017-11-29T12:28:43.891Z,45.53
2017-11-29T12:31:11.331Z,47.60
2017-11-29T12:33:38.758Z,48.57
2017-11-29T12:36:06.994Z,48.57
2017-11-29T12:38:34.450Z,43.60
2017-11-29T12:41:01.906Z,45.33
2017-11-29T12:43:29.357Z,51.13
2017-11-29T12:45:56.817Z,45.60
2017-11-29T12:48:36.250Z,46.57
2017-11-29T12:51:23.593Z,47.60
2017-11-29T12:53:51.038Z,45.40
2017-11-29T12:56:18.474Z,44.23
2017-11-29T12:58:45.942Z,45.70
2017-11-29T13:01:13.410Z,44.20
2017-11-29T13:03:40.858Z,44.13
2017-11-29T13:06:08.323Z,45.63
2017-11-29T13:08:35.749Z,45.80
2017-11-29T13:11:03.230Z,45.23
2017-11-29T13:13:30.661Z,43.93
2017-11-29T13:15:58.142Z,45.50
2017-11-29T13:18:25.598Z,45.90
2017-11-29T13:20:53.047Z,44.57
2017-11-29T13:23:20.474Z,41.73
2017-11-29T13:25:48.693Z,44.53
2017-11-29T13:28:16.141Z,44.23
2017-11-29T13:30:43.582Z,44.10
2017-11-29T13:33:11.018Z,41.67
2017-11-29T13:35:39.242Z,43.03
2017-11-29T13:38:06.685Z,44.43
2017-11-29T13:40:34.110Z,44.43
2017-11-29T13:43:01.560Z,42.90
2017-11-29T13:45:29.790Z,45.97
2017-11-29T13:47:57.262Z,43.83
2017-11-29T13:50:24.804Z,43.83
2017-11-29T13:52:52.265Z,40.90
2017-11-29T13:55:19.695Z,42.43
2017-11-29T13:57:47.174Z,42.57
2017-11-29T14:00:14.721Z,38.33
2017-11-29T14:02:42.126Z,40.63
2017-11-29T14:05:10.341Z,40.57
2017-11-29T14:07:37.761Z,38.73
2017-11-29T14:10:05.958Z,41.40
2017-11-29T14:12:33.413Z,39.87
2017-11-29T14:15:00.849Z,40.13
2017-11-29T14:17:28.274Z,39.33
2017-11-29T14:19:55.769Z,40.27
2017-11-29T14:22:23.986Z,39.93
2017-11-29T14:24:51.426Z,41.40
2017-11-29T14:27:18.874Z,39.03
2017-11-29T14:29:47.068Z,38.40
2017-11-29T14:32:14.495Z,37.93
2017-11-29T14:34:42.704Z,39.50
2017-11-29T14:37:10.130Z,37.70
2017-11-29T14:39:38.322Z,38.27
2017-11-29T14:42:05.771Z,38.20
2017-11-29T14:44:33.208Z,40.07
2017-11-29T14:47:01.411Z,40.33
2017-11-29T14:49:28.860Z,39.03
2017-11-29T14:51:56.285Z,45.17
2017-11-29T14:54:24.515Z,40.13
2017-11-29T14:56:51.973Z,46.30
2017-11-29T14:59:19.416Z,42.17
2017-11-29T15:01:46.846Z,43.92
2017-11-29T15:04:15.053Z,57.17
2017-11-29T15:06:42.485Z,47.63
2017-11-29T15:09:09.978Z,45.90
2017-11-29T15:11:37.425Z,43.23
2017-11-29T15:14:04.865Z,48.20
2017-11-29T15:16:32.318Z,45.17
2017-11-29T15:18:59.765Z,43.07
2017-11-29T15:21:27.980Z,44.67
2017-11-29T15:23:55.426Z,45.37
2017-11-29T15:26:22.858Z,57.88
2017-11-29T15:28:50.543Z,43.57
2017-11-29T15:31:18.017Z,39.83
2017-11-29T15:33:45.517Z,41.90
2017-11-29T15:36:13.714Z,38.47
2017-11-29T15:38:41.145Z,40.50
2017-11-29T15:41:08.583Z,38.07
2017-11-29T15:43:36.111Z,38.30
2017-11-29T15:46:03.546Z,40.67
2017-11-29T15:48:31.003Z,38.43
2017-11-29T15:50:58.552Z,38.87
2017-11-29T15:53:26.746Z,39.10
2017-11-29T15:55:54.229Z,40.17
2017-11-29T15:58:21.678Z,39.50
2017-11-29T16:00:49.131Z,38.63
2017-11-29T16:03:16.558Z,38.70
2017-11-29T16:05:43.993Z,40.07
2017-11-29T16:08:11.503Z,38.83
2017-11-29T16:10:38.955Z,41.10
2017-11-29T16:13:06.379Z,36.43
2017-11-29T16:15:34.593Z,36.73
2017-11-29T16:18:02.054Z,36.73
2017-11-29T16:20:29.486Z,38.73
2017-11-29T16:22:56.922Z,40.23
2017-11-29T16:25:25.132Z,37.33
2017-11-29T16:27:52.558Z,39.30
2017-11-29T16:30:20.766Z,36.47
2017-11-29T16:32:48.534Z,38.17
2017-11-29T16:35:15.971Z,37.90
2017-11-29T16:37:43.407Z,37.37
2017-11-29T16:40:11.613Z,35.83
2017-11-29T16:42:39.050Z,39.13
2017-11-29T16:45:06.474Z,36.13
2017-11-29T16:47:33.990Z,36.70
2017-11-29T16:50:02.283Z,37.63
2017-11-29T16:52:29.740Z,34.43
2017-11-29T16:54:57.198Z,36.20
2017-11-29T16:57:24.741Z,38.70
2017-11-29T16:59:52.183Z,38.40
2017-11-29T17:02:19.622Z,36.53
2017-11-29T17:04:47.821Z,39.27
2017-11-29T17:07:15.252Z,39.20
2017-11-29T17:09:43.455Z,35.43
2017-11-29T17:12:10.884Z,39.23
2017-11-29T17:14:39.104Z,36.10
2017-11-29T17:17:06.546Z,37.70
2017-11-29T17:19:33.971Z,36.63
2017-11-29T17:22:02.161Z,35.60
2017-11-29T17:24:29.677Z,35.37
2017-11-29T17:26:57.114Z,35.40
2017-11-29T17:29:24.540Z,36.10
2017-11-29T17:31:52.814Z,36.43
2017-11-29T17:34:20.258Z,35.53
2017-11-29T17:36:47.697Z,36.93
2017-11-29T17:39:15.141Z,36.33
2017-11-29T17:41:42.597Z,37.87
2017-11-29T17:44:10.054Z,38.10
2017-11-29T17:46:37.522Z,35.27
2017-11-29T17:49:04.966Z,38.83
2017-11-29T17:51:32.414Z,39.53
2017-11-29T17:53:59.848Z,37.20
2017-11-29T17:56:28.054Z,43.73
2017-11-29T17:58:55.518Z,40.83
2017-11-29T18:01:22.964Z,41.80
2017-11-29T18:03:50.427Z,39.37
2017-11-29T18:06:17.907Z,38.73
2017-11-29T18:08:45.345Z,40.27
2017-11-29T18:11:12.790Z,41.93
2017-11-29T18:13:40.228Z,40.50
2017-11-29T18:16:07.657Z,39.40
2017-11-29T18:18:35.858Z,40.27
2017-11-29T18:21:03.290Z,43.93
2017-11-29T18:23:31.526Z,40.40
2017-11-29T18:25:58.984Z,43.03
2017-11-29T18:28:26.411Z,44.07
2017-11-29T18:30:53.878Z,44.40
2017-11-29T18:33:21.417Z,43.50
2017-11-29T18:35:48.860Z,42.60
2017-11-29T18:38:16.334Z,45.57
2017-11-29T18:40:43.783Z,47.60
2017-11-29T18:43:11.240Z,41.67
2017-11-29T18:45:38.690Z,54.88
2017-11-29T18:48:06.130Z,46.37
2017-11-29T18:50:33.614Z,45.97
2017-11-29T18:53:01.070Z,42.63
2017-11-29T18:55:28.514Z,43.53
2017-11-29T18:57:55.930Z,44.30
2017-11-29T19:00:24.151Z,43.50
2017-11-29T19:02:51.611Z,43.73
2017-11-29T19:05:19.859Z,44.10
2017-11-29T19:07:47.365Z,40.93
2017-11-29T19:10:14.794Z,41.27
2017-11-29T19:12:42.262Z,41.10
2017-11-29T19:15:09.712Z,40.70
2017-11-29T19:17:37.149Z,41.73
2017-11-29T19:20:04.638Z,43.57
2017-11-29T19:22:32.078Z,41.10
2017-11-29T19:24:59.546Z,42.80
2017-11-29T19:27:27.066Z,42.87
2017-11-29T19:29:55.270Z,42.13
2017-11-29T19:32:22.706Z,43.93
2017-11-29T19:34:50.202Z,44.13
2017-11-29T19:37:17.678Z,40.90
2017-11-29T19:39:45.122Z,40.90
2017-11-29T19:42:12.554Z,39.73
2017-11-29T19:44:40.012Z,43.23
2017-11-29T19:47:07.479Z,42.60
2017-11-29T19:49:34.935Z,39.00
2017-11-29T19:52:02.379Z,44.27
2017-11-29T19:54:29.850Z,44.13
2017-11-29T19:56:57.306Z,43.13
2017-11-29T19:59:24.770Z,43.33
2017-11-29T20:01:52.222Z,45.83
2017-11-29T20:04:19.695Z,44.03
2017-11-29T20:06:47.130Z,43.73
2017-11-29T20:09:14.561Z,41.47
2017-11-29T20:11:42.757Z,44.13
2017-11-29T20:14:10.208Z,43.07
2017-11-29T20:16:37.643Z,41.50
2017-11-29T20:19:05.843Z,42.10
2017-11-29T20:21:33.284Z,44.97
2017-11-29T20:24:00.710Z,42.10
2017-11-29T20:26:28.231Z,48.03
2017-11-29T20:28:55.679Z,45.97
2017-11-29T20:31:23.115Z,47.67
2017-11-29T20:33:50.566Z,43.43
2017-11-29T20:36:18.774Z,48.73
2017-11-29T20:38:46.231Z,43.40
2017-11-29T20:41:13.687Z,46.70
2017-11-29T20:43:41.131Z,47.97
2017-11-29T20:46:08.576Z,48.57
2017-11-29T20:48:36.054Z,50.23
2017-11-29T20:51:04.235Z,51.87
2017-11-29T20:53:31.686Z,49.63
2017-11-29T20:55:59.120Z,50.87
2017-11-29T20:58:26.602Z,55.07
2017-11-29T21:00:54.051Z,53.87
2017-11-29T21:03:21.514Z,55.33
2017-11-29T21:05:48.954Z,57.17
2017-11-29T21:08:16.394Z,49.53
2017-11-29T21:10:44.593Z,47.17
2017-11-29T21:13:12.066Z,49.97
2017-11-29T21:15:39.492Z,47.10
2017-11-29T21:18:06.925Z,48.30
2017-11-29T21:20:35.141Z,48.50
2017-11-29T21:23:02.605Z,44.23
2017-11-29T21:25:30.038Z,51.87
2017-11-29T21:27:57.530Z,45.33
2017-11-29T21:30:24.967Z,45.57
2017-11-29T21:32:52.445Z,44.07
2017-11-29T21:35:20.002Z,49.00
2017-11-29T21:37:47.446Z,46.60
2017-11-29T21:40:14.887Z,51.77
2017-11-29T21:42:42.369Z,52.50
2017-11-29T21:45:09.812Z,47.07
2017-11-29T21:47:37.277Z,48.13
2017-11-29T21:50:04.748Z,46.30
2017-11-29T21:52:32.201Z,54.37
2017-11-29T21:54:59.647Z,48.20
2017-11-29T21:57:27.115Z,50.77
2017-11-29T21:59:54.566Z,45.17
2017-11-29T22:02:22.014Z,43.30
2017-11-29T22:04:49.459Z,43.17
2017-11-29T22:07:16.890Z,39.07
2017-11-29T22:09:45.113Z,46.13
2017-11-29T22:12:12.669Z,39.53
2017-11-29T22:14:40.110Z,41.80
2017-11-29T22:17:07.546Z,45.17
2017-11-29T22:19:35.852Z,42.80
2017-11-29T22:22:03.262Z,44.00
2017-11-29T22:24:30.777Z,42.27
2017-11-29T22:26:58.333Z,42.20
2017-11-29T22:29:25.766Z,38.37
2017-11-29T22:31:53.250Z,42.37
2017-11-29T22:34:20.719Z,36.03
2017-11-29T22:36:48.137Z,35.80
2017-11-29T22:39:15.619Z,37.50
2017-11-29T22:41:43.075Z,39.90
2017-11-29T22:44:10.511Z,33.80
2017-11-29T22:46:38.001Z,37.00
2017-11-29T22:49:05.440Z,32.03
2017-11-29T22:51:32.857Z,32.20
2017-11-29T22:54:01.050Z,32.23
2017-11-29T22:56:28.498Z,33.90
2017-11-29T22:58:56.705Z,30.47
2017-11-29T23:01:24.126Z,32.47
2017-11-29T23:03:52.377Z,33.10
2017-11-29T23:06:19.808Z,33.47
2017-11-29T23:08:47.248Z,32.57
2017-11-29T23:11:14.726Z,30.13
2017-11-29T23:13:42.146Z,28.50
2017-11-29T23:16:09.625Z,25.40
2017-11-29T23:18:37.072Z,27.70
2017-11-29T23:21:04.504Z,28.07
2017-11-29T23:23:32.745Z,27.20
2017-11-29T23:26:00.183Z,44.40
2017-11-29T23:28:27.622Z,120.03
2017-11-29T23:30:55.085Z,95.73
2017-11-29T23:33:22.526Z,31.97
2017-11-29T23:35:50.005Z,30.20
2017-11-29T23:38:17.438Z,38.50
2017-11-29T23:40:44.930Z,47.77
2017-11-29T23:43:12.381Z,66.90
2017-11-29T23:45:39.829Z,75.57
2017-11-29T23:48:07.301Z,45.20
2017-11-29T23:50:34.734Z,35.80
2017-11-29T23:53:02.171Z,34.87
2017-11-29T23:55:29.607Z,31.67
2017-11-29T23:57:57.810Z,29.03
